Time;durP1;ratioP1;P1;durP2;ratioP2;P2;SDS_P1;SDS_P2;PMS_P1;PMS_P2;Temp;Humidity;BMP_temperature;BMP_pressure;BME280_temperature;BME280_humidity;BME280_pressure;Samples;Min_cycle;Max_cycle;Signal;HPM_P1;HPM_P2
2024/03/15 00:01:13;;;;;;;5.20;4.50;;;;;;;;;;5054526;28;20052;-55
2024/03/15 00:03:39;;;;;;;7.30;4.18;;;;;;;;;;5054520;28;20059;-56
2024/03/15 00:06:06;;;;;;;5.18;4.50;;;;;;;;;;5054397;28;20514;-58
2024/03/15 00:08:33;;;;;;;4.88;3.88;;;;;;;;;;5054710;28;20052;-56
2024/03/15 00:11:00;;;;;;;5.68;4.20;;;;;;;;;;5054122;28;20044;-56
2024/03/15 00:13:27;;;;;;;5.13;4.32;;;;;;;;;;5054546;28;20482;-56
2024/03/15 00:15:54;;;;;;;5.38;3.88;;;;;;;;;;5054246;28;20052;-55
2024/03/15 00:18:21;;;;;;;7.88;4.70;;;;;;;;;;5054059;28;20056;-56
2024/03/15 00:20:48;;;;;;;4.97;4.00;;;;;;;;;;5053803;28;20075;-56
2024/03/15 00:23:14;;;;;;;5.45;4.10;;;;;;;;;;5054161;28;20048;-56
2024/03/15 00:25:42;;;;;;;6.35;4.07;;;;;;;;;;5054049;28;20133;-56
2024/03/15 00:28:09;;;;;;;6.78;4.20;;;;;;;;;;5054617;28;20052;-57
2024/03/15 00:30:35;;;;;;;5.20;4.38;;;;;;;;;;5054572;28;20413;-57
2024/03/15 00:33:02;;;;;;;6.22;4.38;;;;;;;;;;5054147;28;20049;-57
2024/03/15 00:35:29;;;;;;;4.65;4.13;;;;;;;;;;5054245;28;20052;-57
2024/03/15 00:37:56;;;;;;;5.53;3.83;;;;;;;;;;5056504;28;20056;-57
2024/03/15 00:40:23;;;;;;;5.90;4.10;;;;;;;;;;5058110;28;20056;-57
2024/03/15 00:42:50;;;;;;;6.57;4.25;;;;;;;;;;5057650;28;20048;-57
2024/03/15 00:45:16;;;;;;;5.15;4.05;;;;;;;;;;5058219;28;20056;-57
2024/03/15 00:47:43;;;;;;;4.70;3.67;;;;;;;;;;5067652;28;20065;-56
2024/03/15 00:50:10;;;;;;;4.68;4.00;;;;;;;;;;5077855;28;20052;-56
2024/03/15 00:52:39;;;;;;;4.60;3.67;;;;;;;;;;5077971;28;20062;-57
2024/03/15 00:55:06;;;;;;;6.60;4.38;;;;;;;;;;5078271;28;20055;-56
2024/03/15 00:57:33;;;;;;;6.60;4.25;;;;;;;;;;5077965;28;20382;-56
2024/03/15 00:59:59;;;;;;;6.07;4.15;;;;;;;;;;5077892;28;20417;-55
2024/03/15 01:02:27;;;;;;;5.00;4.00;;;;;;;;;;5077888;28;20044;-56
2024/03/15 01:04:54;;;;;;;6.05;3.83;;;;;;;;;;5077975;28;20497;-56
2024/03/15 01:07:21;;;;;;;5.43;4.05;;;;;;;;;;5077676;28;20489;-56
2024/03/15 01:09:48;;;;;;;5.47;3.90;;;;;;;;;;5077701;28;20060;-56
2024/03/15 01:12:15;;;;;;;5.03;3.80;;;;;;;;;;5077360;28;20052;-56
2024/03/15 01:14:42;;;;;;;6.13;4.05;;;;;;;;;;5077468;28;20063;-56
2024/03/15 01:17:09;;;;;;;7.10;4.20;;;;;;;;;;5077534;28;20056;-56
2024/03/15 01:19:35;;;;;;;5.07;3.60;;;;;;;;;;5077177;28;20513;-56
2024/03/15 01:22:02;;;;;;;6.40;4.28;;;;;;;;;;5077280;28;20055;-56
2024/03/15 01:24:29;;;;;;;5.72;4.43;;;;;;;;;;5077737;28;20401;-56
2024/03/15 01:26:56;;;;;;;5.03;3.97;;;;;;;;;;5076963;28;20401;-57
2024/03/15 01:29:24;;;;;;;5.07;4.20;;;;;;;;;;5077052;28;20055;-56
2024/03/15 01:31:51;;;;;;;4.60;4.10;;;;;;;;;;5076898;28;20052;-56
2024/03/15 01:34:18;;;;;;;4.40;3.92;;;;;;;;;;5077359;28;20056;-56
2024/03/15 01:36:45;;;;;;;6.05;3.92;;;;;;;;;;5077040;28;20048;-56
2024/03/15 01:39:11;;;;;;;4.68;3.88;;;;;;;;;;5077243;28;20119;-57
2024/03/15 01:41:38;;;;;;;5.32;3.85;;;;;;;;;;5076780;28;20060;-56
2024/03/15 01:44:05;;;;;;;4.97;3.90;;;;;;;;;;5077311;28;20048;-57
2024/03/15 01:46:32;;;;;;;5.05;3.85;;;;;;;;;;5074798;28;20056;-55
2024/03/15 01:48:59;;;;;;;5.10;3.70;;;;;;;;;;5057151;28;20082;-57
2024/03/15 01:51:27;;;;;;;4.72;3.78;;;;;;;;;;5056989;28;20059;-57
2024/03/15 01:53:54;;;;;;;5.55;3.92;;;;;;;;;;5057264;28;20045;-57
2024/03/15 01:56:22;;;;;;;8.80;4.10;;;;;;;;;;5056683;28;20394;-56
2024/03/15 01:58:49;;;;;;;5.28;4.00;;;;;;;;;;5057175;28;20052;-57
2024/03/15 02:01:16;;;;;;;4.85;3.85;;;;;;;;;;5056674;28;20052;-57
2024/03/15 02:03:46;;;;;;;6.18;3.78;;;;;;;;;;5056742;28;20417;-56
2024/03/15 02:06:13;;;;;;;4.65;3.80;;;;;;;;;;5056941;28;20055;-57
2024/03/15 02:08:40;;;;;;;6.30;3.53;;;;;;;;;;5056748;28;20064;-57
2024/03/15 02:11:06;;;;;;;5.38;3.63;;;;;;;;;;5056566;28;20059;-57
2024/03/15 02:13:33;;;;;;;4.63;3.63;;;;;;;;;;5056689;28;20044;-57
2024/03/15 02:16:00;;;;;;;5.15;3.78;;;;;;;;;;5056393;28;20056;-57
2024/03/15 02:18:26;;;;;;;6.60;3.58;;;;;;;;;;5056652;28;20056;-57
2024/03/15 02:20:54;;;;;;;5.78;4.10;;;;;;;;;;5056378;28;20045;-56
2024/03/15 02:23:20;;;;;;;3.95;3.05;;;;;;;;;;5056549;28;20053;-56
2024/03/15 02:25:47;;;;;;;5.65;3.60;;;;;;;;;;5056447;28;20053;-57
2024/03/15 02:28:14;;;;;;;5.55;3.60;;;;;;;;;;5056511;28;20402;-57
2024/03/15 02:30:41;;;;;;;7.25;4.22;;;;;;;;;;5056035;28;20064;-57
2024/03/15 02:33:08;;;;;;;6.00;4.07;;;;;;;;;;5055742;28;20044;-57
2024/03/15 02:35:35;;;;;;;5.55;3.65;;;;;;;;;;5056086;28;20489;-57
2024/03/15 02:38:01;;;;;;;4.70;3.40;;;;;;;;;;5061085;28;20055;-56
2024/03/15 02:40:28;;;;;;;4.95;3.83;;;;;;;;;;5076264;28;20056;-57
2024/03/15 02:42:55;;;;;;;5.13;3.63;;;;;;;;;;5075934;28;20067;-57
2024/03/15 02:45:25;;;;;;;5.38;3.72;;;;;;;;;;5076169;28;20067;-57
2024/03/15 02:47:52;;;;;;;4.43;3.72;;;;;;;;;;5075973;28;20055;-57
2024/03/15 02:50:20;;;;;;;6.50;3.88;;;;;;;;;;5075902;28;20059;-55
2024/03/15 02:52:47;;;;;;;6.85;3.53;;;;;;;;;;5075552;28;20048;-57
2024/03/15 02:55:14;;;;;;;5.15;3.80;;;;;;;;;;5075541;28;20512;-56
2024/03/15 02:57:41;;;;;;;7.10;4.07;;;;;;;;;;5075521;28;20056;-56
2024/03/15 03:00:10;;;;;;;6.38;3.75;;;;;;;;;;5075528;28;20048;-56
2024/03/15 03:02:36;;;;;;;5.85;3.85;;;;;;;;;;5075871;28;20512;-56
2024/03/15 03:05:03;;;;;;;4.60;3.38;;;;;;;;;;5075679;28;20055;-56
2024/03/15 03:07:30;;;;;;;4.72;3.95;;;;;;;;;;5075563;28;20060;-57
2024/03/15 03:09:57;;;;;;;5.07;3.75;;;;;;;;;;5075619;28;20055;-56
2024/03/15 03:12:24;;;;;;;5.55;3.90;;;;;;;;;;5075225;28;20055;-57
2024/03/15 03:14:50;;;;;;;5.72;3.90;;;;;;;;;;5075337;28;20082;-58
2024/03/15 03:17:17;;;;;;;4.88;3.38;;;;;;;;;;5075054;28;20067;-57
2024/03/15 03:19:44;;;;;;;6.07;3.88;;;;;;;;;;5074894;28;20052;-56
2024/03/15 03:22:11;;;;;;;6.15;3.75;;;;;;;;;;5075018;28;20063;-57
2024/03/15 03:24:38;;;;;;;6.05;4.05;;;;;;;;;;5075324;28;20504;-57
2024/03/15 03:27:05;;;;;;;5.47;3.97;;;;;;;;;;5075104;28;20508;-56
2024/03/15 03:29:32;;;;;;;5.93;3.70;;;;;;;;;;5075009;28;20063;-57
2024/03/15 03:31:59;;;;;;;4.93;4.05;;;;;;;;;;5075045;28;20063;-57
2024/03/15 03:34:26;;;;;;;5.90;3.65;;;;;;;;;;5074687;28;20048;-57
2024/03/15 03:36:52;;;;;;;5.93;4.07;;;;;;;;;;5074949;28;20052;-57
2024/03/15 03:39:20;;;;;;;5.95;3.70;;;;;;;;;;5074763;28;20048;-57
2024/03/15 03:41:48;;;;;;;5.10;3.60;;;;;;;;;;5074758;28;20059;-56
2024/03/15 03:44:16;;;;;;;5.82;3.95;;;;;;;;;;5075043;28;20051;-57
2024/03/15 03:46:43;;;;;;;6.68;3.72;;;;;;;;;;5074506;28;20052;-56
2024/03/15 03:49:10;;;;;;;4.88;3.55;;;;;;;;;;5075020;28;20063;-56
2024/03/15 03:51:37;;;;;;;5.60;4.15;;;;;;;;;;5074803;28;20480;-57
2024/03/15 03:54:04;;;;;;;6.13;3.92;;;;;;;;;;5074578;28;20428;-57
2024/03/15 03:56:31;;;;;;;6.15;3.72;;;;;;;;;;5074896;28;20419;-56
2024/03/15 03:58:59;;;;;;;5.38;3.53;;;;;;;;;;5074902;28;20067;-56
2024/03/15 04:01:26;;;;;;;4.97;3.05;;;;;;;;;;5074934;28;20431;-56
2024/03/15 04:03:52;;;;;;;5.38;3.47;;;;;;;;;;5074834;28;20059;-57
2024/03/15 04:06:19;;;;;;;5.15;3.65;;;;;;;;;;5074561;28;20051;-56
2024/03/15 04:08:46;;;;;;;5.15;3.45;;;;;;;;;;5074856;28;20059;-56
2024/03/15 04:11:13;;;;;;;6.00;3.00;;;;;;;;;;5074124;28;20078;-56
2024/03/15 04:13:40;;;;;;;5.25;3.53;;;;;;;;;;5073977;28;20048;-56
2024/03/15 04:16:07;;;;;;;4.50;3.63;;;;;;;;;;5074587;28;20075;-57
2024/03/15 04:18:34;;;;;;;5.10;3.38;;;;;;;;;;5074626;28;20406;-57
2024/03/15 04:21:01;;;;;;;4.68;3.83;;;;;;;;;;5074447;28;20052;-56
2024/03/15 04:23:28;;;;;;;5.57;3.60;;;;;;;;;;5074742;28;20048;-56
2024/03/15 04:25:55;;;;;;;6.65;3.40;;;;;;;;;;5074723;28;20052;-57
2024/03/15 04:28:24;;;;;;;5.15;3.33;;;;;;;;;;5074575;28;20142;-57
2024/03/15 04:30:51;;;;;;;7.60;3.60;;;;;;;;;;5074398;28;20056;-57
2024/03/15 04:33:18;;;;;;;6.32;3.33;;;;;;;;;;5074461;28;20401;-56
2024/03/15 04:35:45;;;;;;;6.20;3.38;;;;;;;;;;5074132;28;20048;-56
2024/03/15 04:38:11;;;;;;;5.30;3.20;;;;;;;;;;5074538;28;20067;-57
2024/03/15 04:40:39;;;;;;;6.57;3.55;;;;;;;;;;5074318;28;20052;-57
2024/03/15 04:43:06;;;;;;;5.47;3.15;;;;;;;;;;5074038;28;20052;-56
2024/03/15 04:45:32;;;;;;;4.28;3.00;;;;;;;;;;5074334;28;20052;-56
2024/03/15 04:48:00;;;;;;;5.82;3.60;;;;;;;;;;5073647;28;20060;-56
2024/03/15 04:50:27;;;;;;;5.60;3.20;;;;;;;;;;5074159;28;20052;-56
2024/03/15 04:52:54;;;;;;;8.25;3.17;;;;;;;;;;5074018;28;20486;-56
2024/03/15 04:55:21;;;;;;;5.10;2.88;;;;;;;;;;5073682;28;20048;-56
2024/03/15 04:57:48;;;;;;;5.53;2.92;;;;;;;;;;5074047;28;20485;-55
2024/03/15 05:00:21;;;;;;;4.28;2.70;;;;;;;;;;5073927;28;20048;-56
2024/03/15 05:02:48;;;;;;;4.20;2.92;;;;;;;;;;5074916;28;20462;-56
2024/03/15 05:05:15;;;;;;;5.72;3.80;;;;;;;;;;5074245;28;20508;-56
2024/03/15 05:07:42;;;;;;;5.60;3.08;;;;;;;;;;5073701;28;20055;-57
2024/03/15 05:10:11;;;;;;;4.45;3.10;;;;;;;;;;5073528;28;20052;-57
2024/03/15 05:12:38;;;;;;;5.70;3.30;;;;;;;;;;5074267;28;20067;-56
2024/03/15 05:15:05;;;;;;;5.25;3.20;;;;;;;;;;5073912;28;20055;-56
2024/03/15 05:17:32;;;;;;;6.50;3.35;;;;;;;;;;5074045;28;20056;-56
2024/03/15 05:19:59;;;;;;;6.43;3.40;;;;;;;;;;5074030;28;20508;-56
2024/03/15 05:22:27;;;;;;;4.72;3.22;;;;;;;;;;5073817;28;20060;-56
2024/03/15 05:24:54;;;;;;;4.95;3.10;;;;;;;;;;5076141;28;20051;-56
2024/03/15 05:27:21;;;;;;;5.05;3.10;;;;;;;;;;5077510;28;20055;-56
2024/03/15 05:29:48;;;;;;;5.38;2.97;;;;;;;;;;5077560;28;20500;-56
2024/03/15 05:32:15;;;;;;;6.47;3.35;;;;;;;;;;5077126;28;20059;-56
2024/03/15 05:34:42;;;;;;;5.47;2.90;;;;;;;;;;5077285;28;20063;-56
2024/03/15 05:37:08;;;;;;;5.90;3.10;;;;;;;;;;5077028;28;20055;-56
2024/03/15 05:39:35;;;;;;;5.85;3.03;;;;;;;;;;5077110;28;20075;-56
2024/03/15 05:42:02;;;;;;;4.80;3.20;;;;;;;;;;5077034;28;20056;-56
2024/03/15 05:44:29;;;;;;;5.43;2.72;;;;;;;;;;5077226;28;20052;-56
2024/03/15 05:46:58;;;;;;;6.13;2.90;;;;;;;;;;5076981;28;20523;-56
2024/03/15 05:49:25;;;;;;;4.70;3.17;;;;;;;;;;5077256;28;20052;-56
2024/03/15 05:51:51;;;;;;;3.45;2.90;;;;;;;;;;5076944;28;20063;-56
2024/03/15 05:54:18;;;;;;;5.38;3.05;;;;;;;;;;5077036;28;20405;-57
2024/03/15 05:56:45;;;;;;;4.38;3.20;;;;;;;;;;5076648;28;20059;-56
2024/03/15 05:59:12;;;;;;;5.30;2.78;;;;;;;;;;5076568;28;20059;-57
2024/03/15 06:01:40;;;;;;;5.60;3.20;;;;;;;;;;5076760;28;20052;-56
2024/03/15 06:04:10;;;;;;;4.30;2.90;;;;;;;;;;5076736;28;20055;-57
2024/03/15 06:06:40;;;;;;;4.88;3.22;;;;;;;;;;5077194;28;20067;-56
2024/03/15 06:09:09;;;;;;;4.75;3.25;;;;;;;;;;5077483;28;20059;-57
2024/03/15 06:11:36;;;;;;;4.72;3.10;;;;;;;;;;5076951;28;20070;-57
2024/03/15 06:14:03;;;;;;;9.77;3.58;;;;;;;;;;5075862;28;20059;-57
2024/03/15 06:16:31;;;;;;;5.47;3.58;;;;;;;;;;5075713;28;20057;-56
2024/03/15 06:18:58;;;;;;;4.53;3.25;;;;;;;;;;5076370;28;20058;-56
2024/03/15 06:21:26;;;;;;;5.43;3.90;;;;;;;;;;5076004;28;20048;-57
2024/03/15 06:23:53;;;;;;;5.82;3.92;;;;;;;;;;5076247;28;20074;-56
2024/03/15 06:26:20;;;;;;;4.32;3.45;;;;;;;;;;5075630;28;20055;-56
2024/03/15 06:28:47;;;;;;;5.47;3.33;;;;;;;;;;5076156;28;20055;-56
2024/03/15 06:31:14;;;;;;;6.13;4.05;;;;;;;;;;5075646;28;20048;-56
2024/03/15 06:33:43;;;;;;;6.78;3.58;;;;;;;;;;5076126;28;20477;-56
2024/03/15 06:36:16;;;;;;;5.10;3.70;;;;;;;;;;5075959;28;20059;-56
2024/03/15 06:38:53;;;;;;;5.35;3.42;;;;;;;;;;5076620;28;20059;-57
2024/03/15 06:41:29;;;;;;;7.50;3.88;;;;;;;;;;5077113;28;20405;-56
2024/03/15 06:44:09;;;;;;;5.05;3.63;;;;;;;;;;5076666;28;20052;-56
2024/03/15 06:47:04;;;;;;;5.60;3.40;;;;;;;;;;5076675;28;20052;-56
2024/03/15 06:49:43;;;;;;;5.30;3.40;;;;;;;;;;5079314;28;20052;-57
2024/03/15 06:54:55;;;;;;;5.80;3.47;;;;;;;;;;5084412;28;20052;-57
2024/03/15 06:57:23;;;;;;;4.25;3.30;;;;;;;;;;5074918;28;20056;-57
2024/03/15 06:59:49;;;;;;;4.80;3.38;;;;;;;;;;5075357;28;20056;-57
2024/03/15 07:02:16;;;;;;;8.48;3.47;;;;;;;;;;5075286;28;20052;-58
2024/03/15 07:04:44;;;;;;;4.70;3.20;;;;;;;;;;5075062;28;20058;-57
2024/03/15 07:07:13;;;;;;;6.28;3.47;;;;;;;;;;5075313;28;20163;-57
2024/03/15 07:09:40;;;;;;;6.00;3.40;;;;;;;;;;5075534;28;20059;-57
2024/03/15 07:12:08;;;;;;;6.43;3.53;;;;;;;;;;5074913;28;20059;-57
2024/03/15 07:14:34;;;;;;;7.30;3.10;;;;;;;;;;5074951;28;20052;-57
2024/03/15 07:17:01;;;;;;;4.20;2.97;;;;;;;;;;5074882;28;20059;-57
2024/03/15 07:19:29;;;;;;;4.65;3.00;;;;;;;;;;5075298;28;20047;-57
2024/03/15 07:21:56;;;;;;;5.00;3.00;;;;;;;;;;5074794;28;20052;-57
2024/03/15 07:24:22;;;;;;;5.47;3.20;;;;;;;;;;5075213;28;20052;-57
2024/03/15 07:26:49;;;;;;;4.93;3.22;;;;;;;;;;5075089;28;20048;-57
2024/03/15 07:29:16;;;;;;;4.57;2.63;;;;;;;;;;5074545;28;20055;-57
2024/03/15 07:31:43;;;;;;;4.57;3.47;;;;;;;;;;5074706;28;20048;-57
2024/03/15 07:34:10;;;;;;;5.38;2.85;;;;;;;;;;5074560;28;20063;-57
2024/03/15 07:36:38;;;;;;;5.93;2.88;;;;;;;;;;5074710;28;20059;-57
2024/03/15 07:39:06;;;;;;;4.93;3.13;;;;;;;;;;5074374;28;20047;-57
2024/03/15 07:41:34;;;;;;;5.85;3.33;;;;;;;;;;5074658;28;20052;-57
2024/03/15 07:44:01;;;;;;;4.20;3.13;;;;;;;;;;5074871;28;20052;-57
2024/03/15 07:46:27;;;;;;;5.88;3.20;;;;;;;;;;5073979;28;20048;-56
2024/03/15 07:48:54;;;;;;;5.18;3.10;;;;;;;;;;5074003;28;20063;-57
2024/03/15 07:51:23;;;;;;;4.82;2.78;;;;;;;;;;5074638;28;20056;-57
2024/03/15 07:53:50;;;;;;;5.60;3.55;;;;;;;;;;5074811;28;20044;-56
2024/03/15 07:56:19;;;;;;;5.38;3.05;;;;;;;;;;5062131;28;20056;-56
2024/03/15 07:58:45;;;;;;;4.10;2.85;;;;;;;;;;5071459;28;20485;-57
2024/03/15 08:01:13;;;;;;;5.80;3.20;;;;;;;;;;5060741;28;20051;-57
2024/03/15 08:03:41;;;;;;;4.47;2.90;;;;;;;;;;5070897;28;20052;-57
2024/03/15 08:06:09;;;;;;;5.35;3.10;;;;;;;;;;5072547;28;20067;-58
2024/03/15 08:08:36;;;;;;;4.68;2.95;;;;;;;;;;5070408;28;20051;-57
2024/03/15 08:11:03;;;;;;;6.50;2.90;;;;;;;;;;5071383;28;20051;-57
2024/03/15 08:13:30;;;;;;;5.05;2.95;;;;;;;;;;5069184;28;20043;-57
2024/03/15 08:15:59;;;;;;;6.53;3.33;;;;;;;;;;5072746;28;20094;-57
2024/03/15 08:18:26;;;;;;;4.63;3.05;;;;;;;;;;5063746;28;20051;-57
2024/03/15 08:20:53;;;;;;;6.65;2.97;;;;;;;;;;5072205;28;20050;-58
2024/03/15 08:23:20;;;;;;;5.50;2.95;;;;;;;;;;5076818;28;20059;-58
2024/03/15 08:25:47;;;;;;;5.55;3.55;;;;;;;;;;5067678;28;20078;-57
2024/03/15 08:28:15;;;;;;;6.15;3.15;;;;;;;;;;5074953;28;20047;-58
2024/03/15 08:30:43;;;;;;;6.25;3.10;;;;;;;;;;5061566;28;20560;-57
2024/03/15 08:33:10;;;;;;;6.10;3.00;;;;;;;;;;5082801;28;20074;-58
2024/03/15 08:35:37;;;;;;;4.97;3.15;;;;;;;;;;5069241;28;20067;-58
2024/03/15 08:38:04;;;;;;;5.30;3.42;;;;;;;;;;5074696;28;20048;-57
2024/03/15 08:40:30;;;;;;;3.70;3.13;;;;;;;;;;5071176;28;20048;-58
2024/03/15 08:42:57;;;;;;;4.65;3.42;;;;;;;;;;5093906;28;20056;-58
2024/03/15 08:45:25;;;;;;;7.53;4.05;;;;;;;;;;5074203;28;20413;-58
2024/03/15 08:47:53;;;;;;;7.65;3.92;;;;;;;;;;5069586;28;20408;-57
2024/03/15 08:50:20;;;;;;;5.55;3.75;;;;;;;;;;5069660;28;20055;-58
2024/03/15 08:52:48;;;;;;;6.05;4.07;;;;;;;;;;5075635;28;20051;-57
2024/03/15 08:55:15;;;;;;;5.95;3.53;;;;;;;;;;5075421;28;20055;-58
2024/03/15 08:57:45;;;;;;;6.07;3.97;;;;;;;;;;5062546;28;20058;-57
2024/03/15 09:00:12;;;;;;;6.45;3.75;;;;;;;;;;5099215;28;20066;-57
2024/03/15 09:02:39;;;;;;;4.93;3.75;;;;;;;;;;5077691;28;20055;-58
2024/03/15 09:05:08;;;;;;;6.75;3.90;;;;;;;;;;5067617;28;20047;-57
2024/03/15 09:07:36;;;;;;;6.45;3.78;;;;;;;;;;5078120;28;20071;-57
2024/03/15 09:10:07;;;;;;;5.85;4.03;;;;;;;;;;5079148;28;20052;-57
2024/03/15 09:12:34;;;;;;;4.80;4.30;;;;;;;;;;5074750;28;20048;-57
2024/03/15 09:15:01;;;;;;;6.32;4.13;;;;;;;;;;5067781;28;20058;-57
2024/03/15 09:17:29;;;;;;;6.40;3.63;;;;;;;;;;5085192;28;20445;-57
2024/03/15 09:19:57;;;;;;;5.22;4.10;;;;;;;;;;5077679;28;20524;-57
2024/03/15 09:22:25;;;;;;;6.03;4.10;;;;;;;;;;5078382;28;20063;-58
2024/03/15 09:24:52;;;;;;;7.25;3.80;;;;;;;;;;5075304;28;20053;-58
2024/03/15 09:27:19;;;;;;;4.97;3.75;;;;;;;;;;5069658;28;20062;-57
2024/03/15 09:29:49;;;;;;;5.53;3.97;;;;;;;;;;5071170;28;20048;-56
2024/03/15 09:32:17;;;;;;;4.93;3.90;;;;;;;;;;5081347;28;20078;-57
2024/03/15 09:34:48;;;;;;;5.90;4.68;;;;;;;;;;5072380;28;20047;-57
2024/03/15 09:37:14;;;;;;;6.93;4.13;;;;;;;;;;5078446;28;20058;-57
2024/03/15 09:39:42;;;;;;;7.18;4.22;;;;;;;;;;5071784;28;20154;-57
2024/03/15 09:42:10;;;;;;;6.20;4.45;;;;;;;;;;5067010;28;20059;-57
2024/03/15 09:44:37;;;;;;;5.30;4.22;;;;;;;;;;5078496;28;20062;-56
2024/03/15 09:47:04;;;;;;;4.85;3.90;;;;;;;;;;5071575;28;20529;-57
2024/03/15 09:49:32;;;;;;;5.28;4.60;;;;;;;;;;5088365;28;20059;-57
2024/03/15 09:51:59;;;;;;;5.05;4.22;;;;;;;;;;5079844;28;20071;-56
2024/03/15 09:54:27;;;;;;;5.43;4.53;;;;;;;;;;5067066;28;20052;-57
2024/03/15 09:56:54;;;;;;;5.65;4.43;;;;;;;;;;5065811;28;20056;-57
2024/03/15 09:59:21;;;;;;;5.90;4.25;;;;;;;;;;5070075;28;20056;-57
2024/03/15 10:01:48;;;;;;;6.22;4.78;;;;;;;;;;5074022;28;20063;-56
2024/03/15 10:04:15;;;;;;;5.22;4.03;;;;;;;;;;5073776;28;20063;-57
2024/03/15 10:06:42;;;;;;;6.30;4.18;;;;;;;;;;5077510;28;20051;-58
2024/03/15 10:09:12;;;;;;;8.60;4.38;;;;;;;;;;5063949;28;20056;-57
2024/03/15 10:11:39;;;;;;;4.88;4.07;;;;;;;;;;5087207;28;20056;-56
2024/03/15 10:14:05;;;;;;;6.85;4.03;;;;;;;;;;5070438;28;20056;-57
2024/03/15 10:16:37;;;;;;;4.20;3.75;;;;;;;;;;5069745;28;20054;-57
2024/03/15 10:19:04;;;;;;;4.95;3.80;;;;;;;;;;5076809;28;20055;-57
2024/03/15 10:21:31;;;;;;;4.70;3.33;;;;;;;;;;5086937;28;20058;-56
2024/03/15 10:23:58;;;;;;;4.53;3.28;;;;;;;;;;5083800;28;20059;-56
2024/03/15 10:26:25;;;;;;;4.82;3.70;;;;;;;;;;5067623;28;20051;-57
2024/03/15 10:28:52;;;;;;;4.28;3.20;;;;;;;;;;5064913;28;20048;-57
2024/03/15 10:31:19;;;;;;;7.68;3.70;;;;;;;;;;5071084;28;20051;-57
2024/03/15 10:33:45;;;;;;;5.78;2.83;;;;;;;;;;5082513;28;20507;-56
2024/03/15 10:36:12;;;;;;;7.03;3.35;;;;;;;;;;5070164;28;20059;-57
2024/03/15 10:38:39;;;;;;;7.35;5.22;;;;;;;;;;5066198;28;20079;-57
2024/03/15 10:41:06;;;;;;;4.90;3.17;;;;;;;;;;5068647;28;20139;-57
2024/03/15 10:43:33;;;;;;;5.97;3.13;;;;;;;;;;5071301;28;20059;-57
2024/03/15 10:46:00;;;;;;;6.15;2.70;;;;;;;;;;5082508;28;20057;-58
2024/03/15 10:48:26;;;;;;;6.38;3.05;;;;;;;;;;5072706;28;20062;-57
2024/03/15 10:50:53;;;;;;;5.00;2.65;;;;;;;;;;5065414;28;20049;-57
2024/03/15 10:53:20;;;;;;;7.47;4.00;;;;;;;;;;5080980;28;20051;-57
2024/03/15 10:55:49;;;;;;;6.00;3.13;;;;;;;;;;5070273;28;20059;-57
2024/03/15 10:58:16;;;;;;;5.97;2.92;;;;;;;;;;5081225;28;20511;-57
2024/03/15 11:00:45;;;;;;;3.70;2.17;;;;;;;;;;5070063;28;20477;-57
2024/03/15 11:03:12;;;;;;;3.80;2.17;;;;;;;;;;5078734;28;20052;-57
2024/03/15 11:05:39;;;;;;;4.20;2.30;;;;;;;;;;5063095;28;20048;-57
2024/03/15 11:08:06;;;;;;;3.85;2.13;;;;;;;;;;5075003;28;20052;-57
2024/03/15 11:10:32;;;;;;;3.22;1.98;;;;;;;;;;5072096;28;20052;-55
2024/03/15 11:12:59;;;;;;;3.25;2.00;;;;;;;;;;5077209;28;20067;-57
2024/03/15 11:15:26;;;;;;;4.07;2.67;;;;;;;;;;5062518;28;20052;-58
2024/03/15 11:18:02;;;;;;;5.10;2.78;;;;;;;;;;5063735;28;20416;-58
2024/03/15 11:20:43;;;;;;;3.72;1.77;;;;;;;;;;5070991;28;20055;-58
2024/03/15 11:23:10;;;;;;;5.40;2.55;;;;;;;;;;5073377;28;20059;-57
2024/03/15 11:25:38;;;;;;;3.53;2.35;;;;;;;;;;5072282;28;20052;-57
2024/03/15 11:28:05;;;;;;;3.65;2.13;;;;;;;;;;5068228;28;20539;-57
2024/03/15 11:30:32;;;;;;;4.57;2.20;;;;;;;;;;5074484;28;20047;-57
2024/03/15 11:33:00;;;;;;;5.68;1.90;;;;;;;;;;5072150;28;20405;-57
2024/03/15 11:35:26;;;;;;;4.68;2.35;;;;;;;;;;5071965;28;20048;-57
2024/03/15 11:37:55;;;;;;;5.00;1.83;;;;;;;;;;5072221;28;20056;-57
2024/03/15 11:40:24;;;;;;;4.28;1.95;;;;;;;;;;5067254;28;20982;-56
2024/03/15 11:42:51;;;;;;;4.70;1.70;;;;;;;;;;5079232;28;20044;-57
2024/03/15 11:45:18;;;;;;;4.55;1.95;;;;;;;;;;5073599;28;20048;-57
2024/03/15 11:47:45;;;;;;;4.43;1.92;;;;;;;;;;5080354;28;20051;-56
2024/03/15 11:50:13;;;;;;;3.03;2.00;;;;;;;;;;5092566;28;20047;-56
2024/03/15 11:52:41;;;;;;;3.58;2.00;;;;;;;;;;5063187;28;20043;-57
2024/03/15 11:55:10;;;;;;;2.80;1.75;;;;;;;;;;5064316;28;20379;-57
2024/03/15 11:57:37;;;;;;;4.05;1.88;;;;;;;;;;5070002;28;20044;-56
2024/03/15 12:00:09;;;;;;;3.92;1.83;;;;;;;;;;5070592;28;20052;-56
2024/03/15 12:02:37;;;;;;;4.40;1.98;;;;;;;;;;5073027;28;20420;-56
2024/03/15 12:05:04;;;;;;;5.07;1.77;;;;;;;;;;5064432;28;20052;-55
2024/03/15 12:07:31;;;;;;;2.97;1.42;;;;;;;;;;5080793;28;20047;-56
2024/03/15 12:10:00;;;;;;;3.90;2.40;;;;;;;;;;5076561;28;20491;-56
2024/03/15 12:12:26;;;;;;;2.20;1.48;;;;;;;;;;5085800;28;20045;-56
2024/03/15 12:14:54;;;;;;;4.50;1.77;;;;;;;;;;5064158;28;20390;-56
2024/03/15 12:17:22;;;;;;;3.47;1.50;;;;;;;;;;5074536;28;20044;-56
2024/03/15 12:19:49;;;;;;;3.67;1.70;;;;;;;;;;5073343;28;20056;-56
2024/03/15 12:22:16;;;;;;;5.07;1.50;;;;;;;;;;5066761;28;20425;-56
2024/03/15 12:24:43;;;;;;;3.83;1.35;;;;;;;;;;5086118;28;20062;-56
2024/03/15 12:27:10;;;;;;;3.15;1.50;;;;;;;;;;5086022;28;20059;-55
2024/03/15 12:29:37;;;;;;;4.10;1.60;;;;;;;;;;5079722;28;20508;-56
2024/03/15 12:32:04;;;;;;;2.70;1.40;;;;;;;;;;5073581;28;20052;-57
2024/03/15 12:34:31;;;;;;;3.70;1.60;;;;;;;;;;5090331;28;20535;-57
2024/03/15 12:36:58;;;;;;;2.13;1.40;;;;;;;;;;5078798;28;20348;-57
2024/03/15 12:39:25;;;;;;;3.67;1.40;;;;;;;;;;5083812;28;20067;-57
2024/03/15 12:41:55;;;;;;;4.22;1.65;;;;;;;;;;5079785;28;20048;-57
2024/03/15 12:44:21;;;;;;;4.82;2.00;;;;;;;;;;5085032;28;20044;-57
2024/03/15 12:46:48;;;;;;;2.42;1.20;;;;;;;;;;5080157;28;20052;-56
2024/03/15 12:49:15;;;;;;;3.00;1.27;;;;;;;;;;5058389;28;20123;-57
2024/03/15 12:51:42;;;;;;;2.28;1.02;;;;;;;;;;5055557;28;20405;-56
2024/03/15 12:54:09;;;;;;;2.85;1.08;;;;;;;;;;5048588;28;20057;-56
2024/03/15 12:56:36;;;;;;;2.33;1.13;;;;;;;;;;5049393;28;20053;-57
2024/03/15 12:59:03;;;;;;;2.25;1.00;;;;;;;;;;5050787;28;20053;-57
2024/03/15 13:01:30;;;;;;;1.85;0.90;;;;;;;;;;5053275;28;20048;-57
2024/03/15 13:03:58;;;;;;;2.83;1.00;;;;;;;;;;5043265;28;20056;-58
2024/03/15 13:06:25;;;;;;;3.63;1.10;;;;;;;;;;5052593;28;20059;-58
2024/03/15 13:08:51;;;;;;;2.85;1.00;;;;;;;;;;5061573;28;20051;-57
2024/03/15 13:11:18;;;;;;;2.00;1.10;;;;;;;;;;5069971;28;20421;-57
2024/03/15 13:13:45;;;;;;;3.45;1.20;;;;;;;;;;5060206;28;20051;-56
2024/03/15 13:16:12;;;;;;;3.28;1.27;;;;;;;;;;5054109;28;20060;-58
2024/03/15 13:18:39;;;;;;;3.50;1.20;;;;;;;;;;5059910;28;20055;-57
2024/03/15 13:21:08;;;;;;;5.03;1.27;;;;;;;;;;5060268;28;20059;-56
2024/03/15 13:23:35;;;;;;;3.17;1.30;;;;;;;;;;5063200;28;20055;-56
2024/03/15 13:26:02;;;;;;;3.72;1.30;;;;;;;;;;5054964;28;20052;-56
2024/03/15 13:28:29;;;;;;;2.20;1.13;;;;;;;;;;5057583;28;22007;-57
2024/03/15 13:30:56;;;;;;;4.72;1.38;;;;;;;;;;5056261;28;20056;-56
2024/03/15 13:33:23;;;;;;;2.33;1.20;;;;;;;;;;5047429;28;20057;-56
2024/03/15 13:35:51;;;;;;;3.65;1.40;;;;;;;;;;5042476;28;20087;-56
2024/03/15 13:38:18;;;;;;;4.05;1.58;;;;;;;;;;5055381;28;20081;-57
2024/03/15 13:40:46;;;;;;;3.03;1.40;;;;;;;;;;5056007;28;20508;-57
2024/03/15 13:43:13;;;;;;;4.57;1.45;;;;;;;;;;5057615;28;20406;-57
2024/03/15 13:45:40;;;;;;;3.70;1.20;;;;;;;;;;5056669;28;20067;-57
2024/03/15 13:48:08;;;;;;;2.95;1.25;;;;;;;;;;5064614;28;20059;-58
2024/03/15 13:50:35;;;;;;;3.22;1.00;;;;;;;;;;5072313;28;20066;-57
2024/03/15 13:53:08;;;;;;;2.55;1.27;;;;;;;;;;5071996;28;20052;-57
2024/03/15 13:55:36;;;;;;;3.45;1.17;;;;;;;;;;5074121;28;20057;-57
2024/03/15 13:58:03;;;;;;;3.13;1.33;;;;;;;;;;5077189;28;20061;-57
2024/03/15 14:00:34;;;;;;;2.63;1.10;;;;;;;;;;5070961;28;20048;-57
2024/03/15 14:03:02;;;;;;;2.20;1.00;;;;;;;;;;5062884;28;20056;-57
2024/03/15 14:05:35;;;;;;;2.63;1.17;;;;;;;;;;5063334;28;20052;-57
2024/03/15 14:08:02;;;;;;;2.47;1.35;;;;;;;;;;5064988;28;20371;-56
2024/03/15 14:10:31;;;;;;;4.55;1.25;;;;;;;;;;5068235;28;20063;-57
2024/03/15 14:12:58;;;;;;;2.10;1.20;;;;;;;;;;5068808;28;20052;-57
2024/03/15 14:15:25;;;;;;;2.10;1.00;;;;;;;;;;5082627;28;20056;-57
2024/03/15 14:17:52;;;;;;;2.65;1.30;;;;;;;;;;5075831;28;20052;-57
2024/03/15 14:20:19;;;;;;;1.77;1.00;;;;;;;;;;5077522;28;20063;-58
2024/03/15 14:22:46;;;;;;;2.15;1.13;;;;;;;;;;5073969;28;20055;-58
2024/03/15 14:25:15;;;;;;;3.33;1.48;;;;;;;;;;5073833;28;20398;-57
2024/03/15 14:27:43;;;;;;;1.83;0.90;;;;;;;;;;5079738;28;20416;-57
2024/03/15 14:30:10;;;;;;;1.73;1.00;;;;;;;;;;5072045;28;20059;-57
2024/03/15 14:32:37;;;;;;;2.10;1.10;;;;;;;;;;5081941;28;20059;-57
2024/03/15 14:35:04;;;;;;;3.08;1.15;;;;;;;;;;5080297;28;20465;-56
2024/03/15 14:37:31;;;;;;;2.35;1.17;;;;;;;;;;5083043;28;20043;-57
2024/03/15 14:39:57;;;;;;;3.13;1.27;;;;;;;;;;5071262;28;20051;-56
2024/03/15 14:42:25;;;;;;;2.13;1.17;;;;;;;;;;5071320;28;20055;-57
2024/03/15 14:44:52;;;;;;;3.15;1.00;;;;;;;;;;5069830;28;20047;-58
2024/03/15 14:47:19;;;;;;;2.45;1.27;;;;;;;;;;5063674;28;20170;-57